Impacts TAF Board INFO
FOR SITUATIONAL AWARENESS. NOT TO BE USED FOR FLIGHT PLANNING PURPOSES.
IDs:

KMKT - Mankato Rgnl, MN, US

Issued at 2031 UTC 15 Dec 2017
Updated at 2148 UTC 15 Dec 2017
Potential Impact None Slight Moderate High
Time<<16/10Z 16/11Z 16/12Z 16/13Z 16/14Z 16/15Z 16/16Z 16/17Z 16/18Z 16/19Z 16/20Z 16/21Z 16/22Z>>
Type PRVL PRVL PRVL PRVL PRVL PRVL PRVL PRVL
VIS >6 >6 >6 >6 >6 >6 >6 >6
CIG 100 100 100 100 100 100 100 100
Cover OVC OVC OVC OVC OVC OVC OVC OVC
FltCat VFR VFR VFR VFR VFR VFR VFR VFR
WX -- -- -- -- -- -- -- --
WDir 110 110 110 110 110 110 110 110
WSpd 5 5 5 5 5 5 5 5
WGst -- -- -- -- -- -- -- --

Raw TAF
KMKT 152031Z 1521/1618 VRB03KT P6SM OVC020
  FM152200 16068KT P6SM OVC040
  FM160120 11005KT P6SM OVC100


METAR Board

FOR SITUATIONAL AWARENESS. NOT TO BE USED FOR FLIGHT PLANNING PURPOSES.